Time;durP1;ratioP1;P1;durP2;ratioP2;P2;SDS_P1;SDS_P2;PMS_P1;PMS_P2;Temp;Humidity;BMP_temperature;BMP_pressure;BME280_temperature;BME280_humidity;BME280_pressure;Samples;Min_cycle;Max_cycle;Signal;HPM_P1;HPM_P2
2020/12/04 00:00:20;;;;;;;1.60;1.50;;;6.70;86.90;;;;;;4886223;29;20364;-81
2020/12/04 00:03:08;;;;;;;1.45;1.30;;;6.70;87.00;;;;;;4898401;29;20045;-82
2020/12/04 00:05:54;;;;;;;1.98;1.45;;;6.60;86.90;;;;;;4876919;29;20239;-81
2020/12/04 00:08:21;;;;;;;1.77;1.30;;;6.60;87.00;;;;;;4861908;29;20079;-83
2020/12/04 00:11:29;;;;;;;1.55;1.30;;;6.60;87.00;;;;;;4859147;29;20065;-83
2020/12/04 00:14:37;;;;;;;1.80;1.35;;;6.70;87.00;;;;;;4876055;29;20119;-83
2020/12/04 00:17:51;;;;;;;1.67;1.30;;;6.70;87.00;;;;;;4881446;29;20044;-81
2020/12/04 00:20:40;;;;;;;1.75;1.60;;;6.70;86.90;;;;;;4914867;29;20047;-80
2020/12/04 00:23:49;;;;;;;1.52;1.20;;;6.70;87.00;;;;;;4929721;29;20060;-82
2020/12/04 00:26:56;;;;;;;2.13;1.52;;;6.70;86.90;;;;;;4919942;29;20051;-82
2020/12/04 00:29:46;;;;;;;1.52;1.30;;;6.70;86.80;;;;;;4935237;29;20046;-82
2020/12/04 00:33:21;;;;;;;1.10;1.00;;;6.60;86.80;;;;;;4935995;29;20054;-82
2020/12/04 00:36:39;;;;;;;1.08;1.08;;;6.70;86.80;;;;;;4899618;29;20150;-82
2020/12/04 00:39:05;;;;;;;1.33;1.23;;;6.70;86.80;;;;;;4899145;29;20064;-83
2020/12/04 00:41:52;;;;;;;1.42;1.25;;;6.60;86.80;;;;;;4899323;29;20055;-82
2020/12/04 00:44:44;;;;;;;1.20;1.10;;;6.60;86.70;;;;;;4879567;29;20190;-82
2020/12/04 00:47:54;;;;;;;1.50;1.20;;;6.70;86.80;;;;;;4849377;29;20049;-79
2020/12/04 00:51:07;;;;;;;1.15;1.05;;;6.70;86.60;;;;;;4861576;29;20523;-83
2020/12/04 00:54:19;;;;;;;1.35;1.25;;;6.70;86.60;;;;;;4864301;29;20123;-81
2020/12/04 00:57:16;;;;;;;1.25;1.15;;;6.70;86.60;;;;;;4908824;29;20052;-82
2020/12/04 01:00:47;;;;;;;1.58;1.30;;;6.70;86.70;;;;;;4897010;29;20101;-83
2020/12/04 01:03:54;;;;;;;1.10;1.00;;;6.60;86.70;;;;;;4900141;29;20135;-82
2020/12/04 01:06:49;;;;;;;1.20;1.10;;;6.60;86.80;;;;;;4899416;29;20028;-82
2020/12/04 01:09:55;;;;;;;1.83;1.52;;;6.60;86.70;;;;;;4878455;29;20037;-82
2020/12/04 01:13:07;;;;;;;1.92;1.63;;;6.60;86.70;;;;;;4857926;29;20034;-83
2020/12/04 01:15:57;;;;;;;2.13;1.60;;;6.60;86.60;;;;;;4805785;29;20096;-82
2020/12/04 01:18:43;;;;;;;1.27;1.10;;;6.60;86.80;;;;;;4807783;29;20054;-83
2020/12/04 01:21:26;;;;;;;1.63;1.33;;;6.70;86.70;;;;;;4806967;29;20053;-83
2020/12/04 01:24:13;;;;;;;1.63;1.50;;;6.60;86.60;;;;;;4790912;29;20473;-82
2020/12/04 01:26:55;;;;;;;1.95;1.35;;;6.70;86.60;;;;;;4803766;29;20130;-82
2020/12/04 01:30:06;;;;;;;1.20;1.10;;;6.70;86.60;;;;;;4791006;29;20045;-84
2020/12/04 01:33:16;;;;;;;1.85;1.58;;;6.60;86.50;;;;;;4842417;29;20046;-84
2020/12/04 01:36:40;;;;;;;1.48;1.38;;;6.70;86.60;;;;;;4841342;29;20133;-84
2020/12/04 01:40:10;;;;;;;2.85;1.75;;;6.70;86.60;;;;;;4846118;29;20494;-82
2020/12/04 01:43:18;;;;;;;;;;;6.70;86.60;;;;;;4807928;29;20110;-81
2020/12/04 01:46:25;;;;;;;1.40;1.30;;;6.60;86.60;;;;;;4817125;29;19917;-83
2020/12/04 01:49:06;;;;;;;1.90;1.38;;;6.60;86.60;;;;;;4862094;29;20128;-85
2020/12/04 01:52:51;;;;;;;0.90;0.90;;;6.60;86.50;;;;;;4848763;29;20082;-84
2020/12/04 01:55:29;;;;;;;1.20;1.08;;;6.60;86.40;;;;;;4824920;29;20058;-85
2020/12/04 01:58:44;;;;;;;2.15;1.38;;;6.60;86.60;;;;;;4812668;29;20112;-84
2020/12/04 02:01:44;;;;;;;1.55;1.45;;;6.60;86.50;;;;;;4777700;30;20092;-82
2020/12/04 02:04:18;;;;;;;1.77;1.38;;;6.60;86.50;;;;;;4766190;30;20513;-83
2020/12/04 02:07:14;;;;;;;1.35;1.25;;;6.60;86.50;;;;;;4794723;29;20141;-83
2020/12/04 02:10:02;;;;;;;0.90;0.90;;;6.60;86.50;;;;;;4774526;29;20433;-83
2020/12/04 02:13:09;;;;;;;1.27;1.02;;;6.60;86.50;;;;;;4774385;29;20170;-83
2020/12/04 02:16:03;;;;;;;1.60;1.30;;;6.60;86.50;;;;;;4747403;30;20085;-84
2020/12/04 02:18:50;;;;;;;1.15;1.05;;;6.60;86.60;;;;;;4734786;30;20033;-84
2020/12/04 02:22:02;;;;;;;1.38;1.27;;;6.60;86.60;;;;;;4691113;30;20081;-83
2020/12/04 02:25:44;;;;;;;1.30;1.20;;;6.60;86.60;;;;;;4715026;30;20103;-83
2020/12/04 02:29:12;;;;;;;1.52;1.42;;;6.60;86.60;;;;;;4786346;30;21102;-85
2020/12/04 02:32:22;;;;;;;1.25;1.15;;;6.60;86.60;;;;;;4767525;30;20487;-82
2020/12/04 02:35:36;;;;;;;0.90;0.90;;;6.60;86.70;;;;;;4768727;30;20394;-83
2020/12/04 02:38:23;;;;;;;1.23;1.13;;;6.60;86.70;;;;;;4702108;30;20051;-83
2020/12/04 02:40:50;;;;;;;1.20;1.17;;;6.60;87.30;;;;;;4716122;30;20174;-85
2020/12/04 02:58:13;;;;;;;1.00;0.95;;;6.60;86.60;;;;;;5051654;28;20060;-84
2020/12/04 03:01:27;;;;;;;0.95;0.77;;;6.60;86.80;;;;;;4970512;28;20062;-82
2020/12/04 03:04:43;;;;;;;1.20;1.10;;;6.60;86.80;;;;;;4915660;29;20040;-84
2020/12/04 03:08:02;;;;;;;1.25;1.00;;;6.60;86.80;;;;;;4870676;29;20151;-83
2020/12/04 03:10:58;;;;;;;1.45;1.17;;;6.60;86.80;;;;;;4858744;29;20041;-82
2020/12/04 03:14:25;;;;;;;1.05;0.93;;;6.60;86.80;;;;;;4773599;30;20047;-84
2020/12/04 03:17:39;;;;;;;1.00;1.00;;;6.60;87.20;;;;;;4746107;30;20514;-82
2020/12/04 03:20:49;;;;;;;0.93;0.80;;;6.60;86.60;;;;;;4715621;30;20037;-82
2020/12/04 03:24:15;;;;;;;1.00;1.00;;;6.60;86.60;;;;;;4689741;30;20038;-82
2020/12/04 03:27:29;;;;;;;1.60;1.10;;;6.60;86.70;;;;;;4681111;30;20097;-83
2020/12/04 03:30:15;;;;;;;1.05;0.77;;;6.60;86.70;;;;;;4645436;30;20035;-82
2020/12/04 03:32:41;;;;;;;1.15;0.85;;;6.60;86.70;;;;;;4617822;30;20038;-83
2020/12/04 03:35:51;;;;;;;1.10;1.10;;;6.60;86.70;;;;;;4646941;30;20039;-82
2020/12/04 03:39:22;;;;;;;1.83;1.08;;;6.60;86.60;;;;;;4644195;30;20410;-82
2020/12/04 03:42:33;;;;;;;1.17;1.08;;;6.60;86.70;;;;;;4650719;30;20042;-84
2020/12/04 03:45:46;;;;;;;0.80;0.80;;;6.60;86.70;;;;;;4680344;30;20793;-84
2020/12/04 03:48:20;;;;;;;1.00;0.95;;;6.60;86.70;;;;;;4672232;30;20047;-85
2020/12/04 03:51:27;;;;;;;1.10;1.02;;;6.60;86.80;;;;;;4662363;30;20056;-81
2020/12/04 03:54:34;;;;;;;1.40;1.02;;;6.60;86.60;;;;;;4675977;30;20137;-83
2020/12/04 03:57:20;;;;;;;1.45;1.30;;;6.70;86.60;;;;;;4640869;31;20056;-83
2020/12/04 04:00:47;;;;;;;1.50;1.33;;;6.60;86.60;;;;;;4637188;30;20055;-84
2020/12/04 04:03:34;;;;;;;1.33;1.08;;;6.70;86.70;;;;;;4636445;30;20546;-84
2020/12/04 04:06:27;;;;;;;1.23;1.13;;;6.70;86.70;;;;;;4648103;30;20163;-82
2020/12/04 04:09:52;;;;;;;1.65;1.33;;;6.70;86.60;;;;;;4646756;30;20158;-84
2020/12/04 04:13:00;;;;;;;1.25;1.15;;;6.70;86.60;;;;;;4654483;30;20047;-82
2020/12/04 04:15:25;;;;;;;1.15;1.05;;;6.70;86.50;;;;;;4724115;30;20060;-81
2020/12/04 04:18:18;;;;;;;0.75;0.75;;;6.70;86.60;;;;;;4768053;30;20042;-81
2020/12/04 04:21:07;;;;;;;1.08;0.98;;;6.70;86.40;;;;;;4739675;30;20048;-84
2020/12/04 04:24:21;;;;;;;0.90;0.90;;;6.70;86.60;;;;;;4784937;30;20044;-84
2020/12/04 04:27:11;;;;;;;0.98;0.98;;;6.70;86.50;;;;;;4771072;30;20047;-83
2020/12/04 04:29:38;;;;;;;1.50;1.27;;;6.70;86.50;;;;;;4773651;30;20039;-88
2020/12/04 04:32:04;;;;;;;1.15;0.93;;;6.70;86.60;;;;;;4771967;30;20101;-87
2020/12/04 04:34:32;;;;;;;0.88;0.88;;;6.70;86.70;;;;;;4786412;29;20052;-89
2020/12/04 04:36:58;;;;;;;1.05;0.90;;;6.70;86.70;;;;;;4769463;30;20497;-86
2020/12/04 04:39:24;;;;;;;0.98;0.98;;;6.70;86.60;;;;;;4771294;29;20140;-87
2020/12/04 04:41:57;;;;;;;1.10;0.90;;;6.70;86.60;;;;;;4761304;29;20044;-87
2020/12/04 04:44:22;;;;;;;0.82;0.80;;;6.70;86.60;;;;;;4806883;29;20548;-84
2020/12/04 04:47:03;;;;;;;0.93;0.90;;;6.80;86.70;;;;;;4804420;29;20085;-85
2020/12/04 04:49:34;;;;;;;0.90;0.90;;;6.80;86.60;;;;;;4805935;29;20038;-84
2020/12/04 04:52:01;;;;;;;0.85;0.85;;;6.80;86.60;;;;;;4864010;29;20045;-85
2020/12/04 04:54:28;;;;;;;0.82;0.70;;;6.80;86.60;;;;;;4933462;29;20086;-88
2020/12/04 04:56:54;;;;;;;0.60;0.60;;;6.80;86.60;;;;;;4970123;28;20181;-86
2020/12/04 04:59:20;;;;;;;1.10;1.00;;;6.80;86.70;;;;;;4973745;28;20078;-86
2020/12/04 05:01:47;;;;;;;0.88;0.88;;;6.80;86.60;;;;;;4975490;28;20464;-82
2020/12/04 05:04:14;;;;;;;0.82;0.82;;;6.80;86.60;;;;;;5027504;28;20029;-82
2020/12/04 05:06:39;;;;;;;1.25;0.82;;;6.80;86.60;;;;;;5035776;28;20080;-84
2020/12/04 05:09:07;;;;;;;0.80;0.80;;;6.80;86.60;;;;;;5035430;28;20072;-81
2020/12/04 05:11:34;;;;;;;1.02;1.02;;;6.80;86.60;;;;;;5027766;28;20116;-79
2020/12/04 05:14:16;;;;;;;1.63;1.45;;;6.80;86.60;;;;;;5033676;28;20037;-80
2020/12/04 05:16:44;;;;;;;1.38;1.27;;;6.80;86.50;;;;;;5037091;28;20042;-81
2020/12/04 05:19:10;;;;;;;1.00;0.90;;;6.70;86.60;;;;;;5035630;28;20029;-83
2020/12/04 05:21:36;;;;;;;1.10;1.00;;;6.70;86.70;;;;;;5034445;28;20029;-80
2020/12/04 05:24:03;;;;;;;0.88;0.80;;;6.70;86.80;;;;;;5016773;28;20410;-86
2020/12/04 05:26:30;;;;;;;0.82;0.80;;;6.70;86.90;;;;;;5037659;28;20048;-84
2020/12/04 05:28:55;;;;;;;1.48;0.90;;;6.60;86.80;;;;;;5029994;28;20069;-86
2020/12/04 05:31:28;;;;;;;1.02;0.70;;;6.60;86.90;;;;;;5046444;28;20034;-86
2020/12/04 05:33:54;;;;;;;1.23;1.13;;;6.60;87.00;;;;;;5042279;28;20045;-85
2020/12/04 05:36:30;;;;;;;1.70;1.08;;;6.50;87.00;;;;;;5041921;28;20051;-90
2020/12/04 05:38:57;;;;;;;0.80;0.80;;;6.60;87.00;;;;;;5022696;28;20080;-94
2020/12/04 05:41:26;;;;;;;0.70;0.70;;;6.50;87.00;;;;;;5034782;28;20034;-88
2020/12/04 05:43:54;;;;;;;0.93;0.93;;;6.60;87.00;;;;;;5037180;28;20391;-91
2020/12/04 05:46:25;;;;;;;1.20;1.08;;;6.60;86.80;;;;;;5015234;28;20040;-87
2020/12/04 05:49:00;;;;;;;0.98;0.80;;;6.60;86.80;;;;;;5010303;28;20048;-88
2020/12/04 05:51:30;;;;;;;0.90;0.90;;;6.60;86.80;;;;;;5044992;28;20079;-86
2020/12/04 05:53:56;;;;;;;0.80;0.80;;;6.60;86.90;;;;;;5039320;28;20056;-89
2020/12/04 05:56:23;;;;;;;1.02;0.85;;;6.60;86.90;;;;;;5031161;28;20100;-83
2020/12/04 05:58:52;;;;;;;0.85;0.75;;;6.60;86.90;;;;;;5022719;28;20089;-82
2020/12/04 06:01:20;;;;;;;0.80;0.80;;;6.60;86.80;;;;;;5042537;28;20053;-88
2020/12/04 06:03:53;;;;;;;1.00;1.00;;;6.60;86.80;;;;;;5036119;28;20389;-85
2020/12/04 06:06:27;;;;;;;0.73;0.73;;;6.60;86.80;;;;;;5040850;28;20558;-85
2020/12/04 06:08:56;;;;;;;0.93;0.93;;;6.60;86.70;;;;;;5037503;28;20075;-85
2020/12/04 06:11:24;;;;;;;0.88;0.70;;;6.60;86.70;;;;;;5020852;28;20029;-84
2020/12/04 06:13:50;;;;;;;0.68;0.68;;;6.60;86.60;;;;;;5021974;28;20029;-86
2020/12/04 06:16:17;;;;;;;0.80;0.70;;;6.70;86.70;;;;;;5027473;28;20490;-82
2020/12/04 06:18:43;;;;;;;0.85;0.85;;;6.70;86.70;;;;;;5044422;28;20083;-86
2020/12/04 06:21:10;;;;;;;0.88;0.85;;;6.70;86.70;;;;;;5021017;28;20056;-85
2020/12/04 06:23:35;;;;;;;1.38;1.00;;;6.70;86.70;;;;;;5044041;28;20033;-86
2020/12/04 06:26:03;;;;;;;1.17;1.10;;;6.70;86.70;;;;;;5024485;28;20041;-87
2020/12/04 06:28:37;;;;;;;1.20;1.10;;;6.70;86.70;;;;;;5012514;28;20602;-86
2020/12/04 06:31:04;;;;;;;0.52;0.52;;;6.70;87.00;;;;;;5014551;28;20022;-86
2020/12/04 06:33:31;;;;;;;0.85;0.80;;;6.70;86.70;;;;;;5013353;28;20034;-84
2020/12/04 06:35:57;;;;;;;0.68;0.63;;;6.70;86.60;;;;;;5041002;28;20045;-90
2020/12/04 06:38:40;;;;;;;1.05;0.95;;;6.70;86.50;;;;;;5055196;28;20085;-83
2020/12/04 06:41:26;;;;;;;0.75;0.75;;;6.80;86.50;;;;;;5034536;28;20116;-90
2020/12/04 06:44:16;;;;;;;0.85;0.82;;;6.80;86.40;;;;;;5030546;28;20041;-87
2020/12/04 06:46:44;;;;;;;0.50;0.50;;;6.90;86.40;;;;;;5025030;28;20043;-81
2020/12/04 06:49:35;;;;;;;0.77;0.77;;;6.90;86.40;;;;;;5053962;28;20433;-80
2020/12/04 06:52:17;;;;;;;1.25;1.15;;;7.00;86.40;;;;;;5033852;28;20034;-83
2020/12/04 06:54:45;;;;;;;0.70;0.70;;;7.00;86.20;;;;;;5030752;28;20528;-85
2020/12/04 06:57:12;;;;;;;0.63;0.63;;;7.00;86.20;;;;;;5023829;28;20049;-81
2020/12/04 06:59:42;;;;;;;0.75;0.70;;;7.00;86.10;;;;;;5032727;28;20136;-79
2020/12/04 07:02:14;;;;;;;;;;;7.10;86.10;;;;;;5066817;28;20051;-82
2020/12/04 07:04:52;;;;;;;0.45;0.45;;;7.10;86.10;;;;;;5062734;28;20011;-79
2020/12/04 07:07:18;;;;;;;0.50;0.50;;;7.10;86.10;;;;;;5022604;28;20057;-82
2020/12/04 07:09:53;;;;;;;0.85;0.80;;;7.10;86.00;;;;;;5014480;28;20094;-80
2020/12/04 07:12:22;;;;;;;1.05;0.95;;;7.20;86.00;;;;;;5033757;28;20037;-84
2020/12/04 07:14:56;;;;;;;0.60;0.60;;;7.20;86.00;;;;;;5015726;28;20033;-85
2020/12/04 07:17:24;;;;;;;0.60;0.60;;;7.20;86.00;;;;;;5024605;28;20048;-82
2020/12/04 07:19:52;;;;;;;0.70;0.70;;;7.30;86.00;;;;;;5022719;28;20419;-80
2020/12/04 07:22:19;;;;;;;0.68;0.68;;;7.30;85.90;;;;;;5033348;28;20048;-82
2020/12/04 07:24:45;;;;;;;0.50;0.50;;;7.30;85.80;;;;;;5031475;28;20033;-85
2020/12/04 07:27:19;;;;;;;0.73;0.73;;;7.40;85.80;;;;;;5033593;28;20038;-86
2020/12/04 07:29:45;;;;;;;0.43;0.43;;;7.40;85.80;;;;;;5015071;28;20422;-83
2020/12/04 07:32:12;;;;;;;0.90;0.70;;;7.40;85.80;;;;;;5014977;28;20484;-84
2020/12/04 07:34:38;;;;;;;0.60;0.60;;;7.50;85.80;;;;;;5034824;28;20079;-81
2020/12/04 07:37:05;;;;;;;0.60;0.60;;;7.50;85.80;;;;;;5038834;28;20492;-85
2020/12/04 07:39:34;;;;;;;0.50;0.50;;;7.50;85.60;;;;;;5011320;28;20029;-85
2020/12/04 07:42:01;;;;;;;0.50;0.50;;;7.60;85.70;;;;;;5014762;28;20117;-84
2020/12/04 07:44:32;;;;;;;0.50;0.50;;;7.60;85.70;;;;;;5031309;28;20053;-81
2020/12/04 07:47:11;;;;;;;0.50;0.50;;;7.60;85.70;;;;;;5027680;28;20033;-86
2020/12/04 07:49:45;;;;;;;0.52;0.52;;;7.60;85.70;;;;;;5017920;28;20033;-88
2020/12/04 07:52:20;;;;;;;0.65;0.60;;;7.60;85.60;;;;;;5033369;28;20061;-88
2020/12/04 07:54:49;;;;;;;0.60;0.60;;;7.70;85.60;;;;;;5022968;28;20032;-84
2020/12/04 07:57:24;;;;;;;0.38;0.38;;;7.70;85.60;;;;;;5022358;28;20060;-85
2020/12/04 07:59:52;;;;;;;0.38;0.38;;;7.70;85.60;;;;;;5053888;28;20033;-90
2020/12/04 08:02:27;;;;;;;0.50;0.50;;;7.70;85.60;;;;;;5016363;28;20443;-86
2020/12/04 08:04:55;;;;;;;0.80;0.77;;;7.70;85.70;;;;;;5015691;28;20040;-85
2020/12/04 08:07:20;;;;;;;0.50;0.50;;;7.70;85.70;;;;;;5016164;28;20048;-88
2020/12/04 08:09:46;;;;;;;0.50;0.50;;;7.70;85.80;;;;;;5030984;28;20033;-87
2020/12/04 08:12:16;;;;;;;0.50;0.50;;;7.70;85.70;;;;;;5033900;28;20034;-87
2020/12/04 08:14:54;;;;;;;1.02;0.80;;;7.70;85.60;;;;;;5030980;28;20030;-82
2020/12/04 08:17:23;;;;;;;0.55;0.55;;;7.80;85.60;;;;;;5033023;28;20059;-84
2020/12/04 08:19:49;;;;;;;0.52;0.50;;;7.80;85.60;;;;;;5015609;28;20041;-83
2020/12/04 08:22:15;;;;;;;0.40;0.40;;;7.80;85.60;;;;;;5034128;28;20039;-79
2020/12/04 08:24:50;;;;;;;0.60;0.60;;;7.80;85.60;;;;;;5025992;28;20037;-86
2020/12/04 08:27:16;;;;;;;0.63;0.63;;;7.80;85.40;;;;;;5035653;28;20043;-83
2020/12/04 08:29:46;;;;;;;0.60;0.60;;;7.80;86.00;;;;;;5032577;28;20060;-88
2020/12/04 08:32:21;;;;;;;0.57;0.57;;;7.90;85.50;;;;;;5036645;28;20029;-85
2020/12/04 08:34:48;;;;;;;0.50;0.50;;;7.90;85.40;;;;;;5031444;28;20040;-83
2020/12/04 08:37:16;;;;;;;0.40;0.40;;;7.90;85.40;;;;;;5013987;28;20045;-87
2020/12/04 08:39:49;;;;;;;0.40;0.40;;;8.00;85.30;;;;;;5027840;28;20034;-81
2020/12/04 08:42:22;;;;;;;0.50;0.50;;;8.10;85.20;;;;;;5009864;28;20048;-90
2020/12/04 08:45:09;;;;;;;0.80;0.80;;;8.10;85.10;;;;;;5037816;28;20044;-85
2020/12/04 08:47:38;;;;;;;0.77;0.68;;;8.10;85.00;;;;;;5036161;28;20486;-84
2020/12/04 08:50:19;;;;;;;0.50;0.50;;;8.10;85.10;;;;;;5017643;28;20045;-81
2020/12/04 08:52:50;;;;;;;0.57;0.57;;;8.10;85.20;;;;;;5020076;28;20501;-81
2020/12/04 08:55:19;;;;;;;0.60;0.52;;;8.00;85.40;;;;;;5019888;28;20017;-87
2020/12/04 08:57:46;;;;;;;0.47;0.47;;;8.00;85.60;;;;;;5039911;28;20042;-91
2020/12/04 09:00:15;;;;;;;0.43;0.43;;;7.90;85.80;;;;;;5022993;28;20037;-86
2020/12/04 09:02:41;;;;;;;0.50;0.50;;;7.90;85.90;;;;;;5035155;28;20044;-85
2020/12/04 09:05:09;;;;;;;0.57;0.45;;;7.90;85.80;;;;;;5032922;28;20389;-83
2020/12/04 09:07:35;;;;;;;0.52;0.50;;;8.10;85.70;;;;;;5016049;28;20125;-88
2020/12/04 09:10:02;;;;;;;0.50;0.50;;;8.30;85.40;;;;;;5043117;28;20041;-89
2020/12/04 09:12:28;;;;;;;0.40;0.40;;;8.40;85.00;;;;;;5024812;28;20474;-86
2020/12/04 09:14:53;;;;;;;0.30;0.30;;;8.50;84.80;;;;;;5037367;28;20026;-82
2020/12/04 09:17:19;;;;;;;0.68;0.68;;;8.60;84.60;;;;;;5011949;28;20057;-89
2020/12/04 09:19:46;;;;;;;0.60;0.60;;;8.70;84.40;;;;;;5019161;28;20030;-80
2020/12/04 09:22:15;;;;;;;0.60;0.60;;;8.80;84.20;;;;;;5031849;28;20115;-85
2020/12/04 09:24:41;;;;;;;;;;;8.80;84.20;;;;;;5037548;28;20025;-85
2020/12/04 09:27:07;;;;;;;0.30;0.30;;;8.80;84.20;;;;;;5017378;28;19913;-82
2020/12/04 09:29:33;;;;;;;1.05;0.85;;;8.90;84.30;;;;;;5036739;28;20064;-84
2020/12/04 09:32:14;;;;;;;0.38;0.38;;;8.90;84.20;;;;;;5035932;28;20543;-90
2020/12/04 09:34:43;;;;;;;0.45;0.45;;;8.90;84.10;;;;;;5031185;28;20037;-86
2020/12/04 09:37:17;;;;;;;0.38;0.38;;;8.90;84.20;;;;;;5032404;28;20048;-83
2020/12/04 09:39:44;;;;;;;0.40;0.40;;;9.00;84.30;;;;;;5021157;28;20470;-86
2020/12/04 09:42:11;;;;;;;0.32;0.32;;;8.90;84.30;;;;;;5035870;28;20076;-82
2020/12/04 09:44:37;;;;;;;0.60;0.60;;;8.90;84.30;;;;;;5021906;28;20025;-87
2020/12/04 09:47:03;;;;;;;0.35;0.35;;;8.90;84.40;;;;;;5051831;28;20072;-89
2020/12/04 09:49:28;;;;;;;0.30;0.30;;;8.90;84.50;;;;;;5029663;28;20332;-87
2020/12/04 09:51:57;;;;;;;0.40;0.40;;;8.90;84.50;;;;;;5051736;28;20029;-84
2020/12/04 09:54:23;;;;;;;0.30;0.30;;;9.00;84.50;;;;;;5043130;28;20038;-89
2020/12/04 09:56:51;;;;;;;0.60;0.60;;;9.10;84.50;;;;;;5028406;28;20093;-83
2020/12/04 09:59:17;;;;;;;0.40;0.40;;;9.10;84.40;;;;;;5031993;28;20038;-83
2020/12/04 10:01:47;;;;;;;0.85;0.60;;;9.10;84.40;;;;;;5053908;28;20054;-82
2020/12/04 10:04:12;;;;;;;;;;;9.10;85.00;;;;;;5017957;28;20052;-83
2020/12/04 10:06:39;;;;;;;0.20;0.20;;;9.10;84.90;;;;;;5048140;28;19909;-81
2020/12/04 10:09:04;;;;;;;0.20;0.20;;;9.20;84.40;;;;;;5020077;28;20042;-90
2020/12/04 10:11:30;;;;;;;0.32;0.32;;;9.20;84.20;;;;;;5033740;28;20044;-84
2020/12/04 10:13:55;;;;;;;0.50;0.38;;;9.20;84.10;;;;;;5015680;28;20040;-83
2020/12/04 10:16:21;;;;;;;0.30;0.30;;;9.30;84.10;;;;;;5033075;28;20048;-79
2020/12/04 10:18:47;;;;;;;0.30;0.30;;;9.30;83.90;;;;;;5034258;28;20025;-78
2020/12/04 10:21:12;;;;;;;0.30;0.30;;;9.30;83.90;;;;;;5033759;28;20375;-82
2020/12/04 10:23:38;;;;;;;0.20;0.20;;;9.30;83.90;;;;;;5038416;28;20029;-83
2020/12/04 10:26:03;;;;;;;0.25;0.25;;;9.30;83.80;;;;;;5031012;28;20042;-88
2020/12/04 10:28:32;;;;;;;0.38;0.30;;;9.40;83.90;;;;;;5015702;28;20125;-81
2020/12/04 10:30:59;;;;;;;0.20;0.20;;;9.40;83.90;;;;;;5035192;28;20561;-84
2020/12/04 10:33:24;;;;;;;0.20;0.20;;;9.40;83.70;;;;;;5025630;28;20017;-87
2020/12/04 10:35:50;;;;;;;0.15;0.15;;;9.40;83.80;;;;;;5020048;28;20049;-84
2020/12/04 10:38:15;;;;;;;0.20;0.20;;;9.40;83.70;;;;;;5016494;28;20029;-83
2020/12/04 10:40:41;;;;;;;0.20;0.20;;;9.40;83.80;;;;;;5016654;28;20052;-81
2020/12/04 10:43:07;;;;;;;0.17;0.17;;;9.30;83.70;;;;;;5016849;28;20040;-84
2020/12/04 10:45:32;;;;;;;0.20;0.20;;;9.30;83.80;;;;;;5022262;28;20030;-90
2020/12/04 10:47:58;;;;;;;0.20;0.20;;;9.40;83.90;;;;;;5019139;28;20497;-87
2020/12/04 10:50:23;;;;;;;0.20;0.20;;;9.30;83.80;;;;;;5026993;28;20082;-85
2020/12/04 10:52:49;;;;;;;0.35;0.35;;;9.30;83.70;;;;;;5042510;28;20053;-84
2020/12/04 10:55:15;;;;;;;0.28;0.28;;;9.30;83.70;;;;;;5019986;28;20509;-84
2020/12/04 10:57:40;;;;;;;0.30;0.30;;;9.30;83.80;;;;;;5032929;28;20103;-85
2020/12/04 11:00:06;;;;;;;0.20;0.20;;;9.30;83.80;;;;;;5013413;28;20500;-86
2020/12/04 11:02:35;;;;;;;0.20;0.20;;;9.30;83.60;;;;;;5033670;28;20040;-80
2020/12/04 11:07:45;;;;;;;0.20;0.20;;;9.40;83.40;;;;;;5032997;28;20626;-83
2020/12/04 11:10:10;;;;;;;0.25;0.20;;;9.40;83.30;;;;;;5019737;28;20018;-83
2020/12/04 11:12:36;;;;;;;0.30;0.30;;;9.40;83.80;;;;;;5032360;28;20450;-78
2020/12/04 11:15:02;;;;;;;0.43;0.43;;;9.50;83.10;;;;;;5030256;28;20129;-84
2020/12/04 11:17:27;;;;;;;0.20;0.20;;;9.50;82.90;;;;;;5032753;28;20033;-84
2020/12/04 11:19:53;;;;;;;0.30;0.30;;;9.50;82.80;;;;;;5031065;28;20034;-81
2020/12/04 11:22:19;;;;;;;0.25;0.25;;;9.50;82.70;;;;;;5032250;28;20429;-84
2020/12/04 11:24:45;;;;;;;0.40;0.40;;;9.60;82.70;;;;;;5010348;28;20073;-85
2020/12/04 11:27:12;;;;;;;0.20;0.20;;;9.60;82.50;;;;;;5025530;28;20509;-82
2020/12/04 11:29:38;;;;;;;0.20;0.20;;;9.70;82.50;;;;;;5009628;28;20033;-85
2020/12/04 11:32:04;;;;;;;0.10;0.10;;;9.80;82.30;;;;;;5032747;28;20042;-84
2020/12/04 11:34:30;;;;;;;0.20;0.20;;;9.90;82.00;;;;;;5032042;28;20033;-87
2020/12/04 11:36:55;;;;;;;0.20;0.20;;;9.90;81.90;;;;;;5033091;28;20056;-86
2020/12/04 11:39:21;;;;;;;0.17;0.17;;;9.80;82.60;;;;;;5032449;28;20072;-82
2020/12/04 11:41:47;;;;;;;0.10;0.10;;;9.80;82.10;;;;;;5014872;28;20052;-83
2020/12/04 11:44:13;;;;;;;0.20;0.20;;;10.00;82.60;;;;;;5031724;28;20037;-82
2020/12/04 11:46:39;;;;;;;0.30;0.30;;;10.00;81.60;;;;;;5034093;28;20033;-79
2020/12/04 11:49:05;;;;;;;0.28;0.28;;;10.00;81.60;;;;;;5032502;28;20382;-78
2020/12/04 11:51:30;;;;;;;0.13;0.13;;;10.00;81.60;;;;;;5033346;28;20489;-84
2020/12/04 11:53:56;;;;;;;0.10;0.10;;;9.90;81.80;;;;;;5028849;28;20041;-86
2020/12/04 11:56:21;;;;;;;0.20;0.20;;;9.90;81.80;;;;;;5015628;28;20045;-82
2020/12/04 11:58:47;;;;;;;0.17;0.17;;;9.90;81.80;;;;;;5034230;28;20026;-86
2020/12/04 12:01:13;;;;;;;0.20;0.20;;;9.90;81.80;;;;;;5014956;28;20050;-85
2020/12/04 12:03:39;;;;;;;0.20;0.20;;;9.90;81.90;;;;;;5015137;28;20041;-85
2020/12/04 12:06:04;;;;;;;0.20;0.20;;;9.90;81.90;;;;;;5032233;28;20034;-82
2020/12/04 12:08:30;;;;;;;0.20;0.20;;;9.90;81.80;;;;;;5014358;28;20048;-86
2020/12/04 12:10:56;;;;;;;0.20;0.20;;;10.00;81.70;;;;;;5032629;28;20418;-85
2020/12/04 12:13:24;;;;;;;0.10;0.10;;;10.00;82.20;;;;;;5015515;28;20028;-85
2020/12/04 12:15:50;;;;;;;0.30;0.30;;;10.10;81.50;;;;;;5031025;28;20042;-81
2020/12/04 12:18:16;;;;;;;0.20;0.20;;;10.00;81.40;;;;;;5033383;28;20376;-90
2020/12/04 12:20:41;;;;;;;0.20;0.20;;;10.00;81.50;;;;;;5035809;28;20493;-83
2020/12/04 12:23:07;;;;;;;0.22;0.22;;;10.10;81.60;;;;;;5035192;28;20034;-82
2020/12/04 12:25:33;;;;;;;0.20;0.20;;;10.10;81.40;;;;;;5017786;28;20413;-88
2020/12/04 12:27:58;;;;;;;0.10;0.10;;;10.10;81.30;;;;;;5032386;28;20037;-82
2020/12/04 12:30:24;;;;;;;0.08;0.08;;;10.10;81.20;;;;;;5033063;28;20087;-84
2020/12/04 12:32:50;;;;;;;0.10;0.10;;;10.10;81.20;;;;;;5036150;28;20060;-83
2020/12/04 12:35:18;;;;;;;0.40;0.40;;;10.10;81.20;;;;;;5018800;28;20482;-82
2020/12/04 12:37:44;;;;;;;0.32;0.32;;;10.10;81.20;;;;;;5035490;28;20084;-83
2020/12/04 12:40:10;;;;;;;0.30;0.30;;;10.10;81.20;;;;;;5017702;28;20041;-85
2020/12/04 12:42:40;;;;;;;0.28;0.28;;;10.00;81.30;;;;;;5036571;28;20402;-84
2020/12/04 12:45:11;;;;;;;0.20;0.17;;;9.90;81.40;;;;;;5028864;28;20116;-81
2020/12/04 12:47:36;;;;;;;0.45;0.32;;;9.90;81.50;;;;;;5036438;28;20435;-82
2020/12/04 12:50:05;;;;;;;0.20;0.20;;;9.80;81.50;;;;;;5036259;28;20071;-84
2020/12/04 12:52:30;;;;;;;0.20;0.20;;;9.80;81.60;;;;;;5019308;28;20486;-83
2020/12/04 12:54:56;;;;;;;0.30;0.30;;;9.70;81.60;;;;;;5044136;28;20044;-83
2020/12/04 12:57:22;;;;;;;0.55;0.55;;;9.70;81.70;;;;;;5024081;28;20063;-83
2020/12/04 12:59:47;;;;;;;0.28;0.28;;;9.60;81.70;;;;;;5034590;28;20040;-82
2020/12/04 13:02:15;;;;;;;0.20;0.20;;;9.70;81.70;;;;;;5034547;28;20064;-79
2020/12/04 13:04:46;;;;;;;0.20;0.20;;;9.70;81.60;;;;;;5034833;28;20120;-83
2020/12/04 13:07:12;;;;;;;0.20;0.20;;;9.70;82.10;;;;;;5032785;28;20041;-82
2020/12/04 13:09:37;;;;;;;0.15;0.15;;;9.60;81.40;;;;;;5027961;28;20323;-81
2020/12/04 13:12:03;;;;;;;0.10;0.10;;;9.60;81.30;;;;;;5033283;28;20045;-86
2020/12/04 13:14:29;;;;;;;0.20;0.20;;;9.60;81.30;;;;;;5014329;28;20767;-84
2020/12/04 13:16:54;;;;;;;0.35;0.35;;;9.60;81.30;;;;;;5015810;28;20045;-83
2020/12/04 13:19:20;;;;;;;0.20;0.20;;;9.70;81.30;;;;;;5032788;28;20057;-84
2020/12/04 13:21:54;;;;;;;0.28;0.28;;;9.70;81.20;;;;;;5031631;28;20030;-80
2020/12/04 13:24:20;;;;;;;0.20;0.20;;;9.70;81.10;;;;;;5023474;28;20026;-82
2020/12/04 13:26:46;;;;;;;0.40;0.40;;;9.70;81.10;;;;;;5017398;28;20334;-82
2020/12/04 13:29:11;;;;;;;0.10;0.10;;;9.70;81.10;;;;;;5014639;28;20072;-79
2020/12/04 13:31:38;;;;;;;0.30;0.30;;;9.70;81.00;;;;;;5016321;28;20029;-82
2020/12/04 13:34:04;;;;;;;0.10;0.10;;;9.70;80.90;;;;;;5021727;28;20033;-80
2020/12/04 13:36:29;;;;;;;0.30;0.30;;;9.70;81.50;;;;;;5036839;28;20087;-81
2020/12/04 13:38:55;;;;;;;0.30;0.30;;;9.60;80.90;;;;;;5019928;28;20082;-81
2020/12/04 13:41:21;;;;;;;0.20;0.20;;;9.60;80.80;;;;;;5018708;28;20035;-82
2020/12/04 13:43:47;;;;;;;0.30;0.30;;;9.60;80.90;;;;;;5019796;28;20386;-79
2020/12/04 13:46:13;;;;;;;0.20;0.20;;;9.60;80.90;;;;;;5046309;28;20037;-83
2020/12/04 13:48:39;;;;;;;0.20;0.20;;;9.50;80.80;;;;;;5040782;28;20033;-82
2020/12/04 13:51:05;;;;;;;0.30;0.30;;;9.50;80.80;;;;;;5036907;28;20040;-81
2020/12/04 13:53:31;;;;;;;0.20;0.20;;;9.50;80.80;;;;;;5016566;28;20037;-81
2020/12/04 13:55:59;;;;;;;0.32;0.32;;;9.50;80.80;;;;;;5019992;28;20088;-82
2020/12/04 13:58:27;;;;;;;0.20;0.20;;;9.50;80.80;;;;;;5026968;28;20036;-81
2020/12/04 14:00:55;;;;;;;0.20;0.20;;;9.40;81.30;;;;;;5016399;28;20128;-81
2020/12/04 14:03:21;;;;;;;1.42;0.40;;;9.40;80.70;;;;;;5015067;28;20410;-82
2020/12/04 14:05:51;;;;;;;0.20;0.20;;;9.40;80.70;;;;;;5032169;28;20025;-82